createdAt,value
2019-02-07T00:00:40.024Z,14.50
2019-02-07T00:01:40.027Z,13.80
2019-02-07T00:02:40.002Z,13.60
2019-02-07T00:03:40.005Z,14.30
2019-02-07T00:04:39.980Z,13.60
2019-02-07T00:05:39.984Z,14.00
2019-02-07T00:06:39.983Z,13.20
2019-02-07T00:07:39.967Z,13.80
2019-02-07T00:08:39.933Z,14.90
2019-02-07T00:09:39.924Z,14.40
2019-02-07T00:10:39.932Z,14.60
2019-02-07T00:11:39.937Z,14.00
2019-02-07T00:12:39.892Z,14.00
2019-02-07T00:13:39.894Z,13.80
2019-02-07T00:14:40.088Z,13.70
2019-02-07T00:15:39.859Z,13.70
2019-02-07T00:16:39.863Z,13.70
2019-02-07T00:17:39.857Z,14.30
2019-02-07T00:18:39.826Z,14.20
2019-02-07T00:19:39.812Z,13.60
2019-02-07T00:20:39.804Z,13.50
2019-02-07T00:21:39.812Z,13.80
2019-02-07T00:22:39.855Z,13.90
2019-02-07T00:23:39.771Z,14.00
2019-02-07T00:24:42.977Z,14.10
2019-02-07T00:25:39.747Z,13.20
2019-02-07T00:26:39.749Z,14.10
2019-02-07T00:27:39.726Z,14.10
2019-02-07T00:28:39.729Z,13.10
2019-02-07T00:29:39.706Z,13.50
2019-02-07T00:30:39.694Z,13.90
2019-02-07T00:31:39.695Z,13.90
2019-02-07T00:32:39.669Z,14.00
2019-02-07T00:33:39.664Z,12.70
2019-02-07T00:34:39.658Z,13.10
2019-02-07T00:35:39.645Z,14.50
2019-02-07T00:36:39.699Z,13.90
2019-02-07T00:37:39.614Z,13.40
2019-02-07T00:38:39.613Z,13.80
2019-02-07T00:39:39.606Z,13.10
2019-02-07T00:40:39.578Z,13.50
2019-02-07T00:41:39.587Z,14.10
2019-02-07T00:42:39.562Z,12.60
2019-02-07T00:43:39.553Z,14.00
2019-02-07T00:44:50.203Z,12.90
2019-02-07T00:45:40.520Z,12.90
2019-02-07T00:46:39.538Z,13.60
2019-02-07T00:47:39.499Z,12.20
2019-02-07T00:48:39.505Z,13.50
2019-02-07T00:49:39.485Z,13.30
2019-02-07T00:50:39.467Z,12.80
2019-02-07T00:51:39.482Z,13.30
2019-02-07T00:52:39.447Z,12.90
2019-02-07T00:53:39.432Z,12.60
2019-02-07T00:54:39.420Z,12.60
2019-02-07T00:55:39.417Z,13.40
2019-02-07T00:56:39.924Z,13.30
2019-02-07T00:57:39.424Z,12.90
2019-02-07T00:58:39.376Z,13.30
2019-02-07T00:59:39.380Z,13.40
2019-02-07T01:00:39.358Z,12.90
2019-02-07T01:01:39.351Z,12.90
2019-02-07T01:02:39.357Z,11.80
2019-02-07T01:03:39.428Z,12.80
2019-02-07T01:04:39.317Z,12.80
2019-02-07T01:05:39.304Z,13.10
2019-02-07T01:06:39.294Z,13.40
2019-02-07T01:07:39.312Z,12.80
2019-02-07T01:08:39.277Z,13.30
2019-02-07T01:09:39.277Z,12.90
2019-02-07T01:10:39.250Z,13.70
2019-02-07T01:11:39.235Z,12.60
2019-02-07T01:12:39.252Z,12.70
2019-02-07T01:13:39.217Z,12.90
2019-02-07T01:14:39.212Z,12.40
2019-02-07T01:15:39.210Z,13.40
2019-02-07T01:16:39.176Z,12.90
2019-02-07T01:17:39.183Z,12.70
2019-02-07T01:18:39.158Z,13.50
2019-02-07T01:19:39.147Z,12.60
2019-02-07T01:20:39.143Z,12.80
2019-02-07T01:21:39.121Z,12.30
2019-02-07T01:22:39.135Z,11.90
2019-02-07T01:23:39.100Z,12.40
2019-02-07T01:24:39.093Z,12.30
2019-02-07T01:25:39.100Z,13.30
2019-02-07T01:26:39.082Z,12.90
2019-02-07T01:27:39.060Z,13.20
2019-02-07T01:28:39.042Z,13.00
2019-02-07T01:29:39.039Z,12.60
2019-02-07T01:30:39.053Z,12.80
2019-02-07T01:31:39.020Z,12.60
2019-02-07T01:32:39.022Z,12.50
2019-02-07T01:33:38.987Z,13.50
2019-02-07T01:34:38.984Z,12.90
2019-02-07T01:35:38.966Z,12.60
2019-02-07T01:36:38.958Z,13.00
2019-02-07T01:37:38.966Z,12.60
2019-02-07T01:38:38.933Z,12.90
2019-02-07T01:39:38.920Z,13.00
2019-02-07T01:40:38.921Z,12.60
2019-02-07T01:41:38.920Z,13.30
2019-02-07T01:42:38.890Z,13.20
2019-02-07T01:43:38.903Z,12.90
2019-02-07T01:44:38.872Z,13.00
2019-02-07T01:45:38.858Z,12.20
2019-02-07T01:46:38.855Z,13.00
2019-02-07T01:47:38.838Z,13.00
2019-02-07T01:48:38.859Z,12.80
2019-02-07T01:49:38.824Z,13.40
2019-02-07T01:50:38.799Z,13.20
2019-02-07T01:51:38.789Z,13.10
2019-02-07T01:52:38.781Z,12.60
2019-02-07T01:53:38.802Z,13.00
2019-02-07T01:54:38.764Z,12.50
2019-02-07T01:55:38.748Z,12.80
2019-02-07T01:56:38.736Z,12.70
2019-02-07T01:57:38.738Z,12.60
2019-02-07T01:58:38.804Z,12.90
2019-02-07T01:59:38.705Z,12.90
2019-02-07T02:00:38.701Z,12.90
2019-02-07T02:01:38.772Z,12.40
2019-02-07T02:02:38.707Z,12.50
2019-02-07T02:03:38.673Z,12.60
2019-02-07T02:04:38.658Z,13.50
2019-02-07T02:05:38.642Z,13.00
2019-02-07T02:06:38.630Z,12.80
2019-02-07T02:07:38.611Z,13.40
2019-02-07T02:08:38.616Z,12.30
2019-02-07T02:09:38.588Z,13.10
2019-02-07T02:10:38.586Z,12.40
2019-02-07T02:11:38.582Z,12.80
2019-02-07T02:12:38.557Z,12.80
2019-02-07T02:13:38.569Z,13.20
2019-02-07T02:14:38.535Z,13.30
2019-02-07T02:15:38.521Z,12.30
2019-02-07T02:16:38.519Z,13.20
2019-02-07T02:17:38.509Z,12.30
2019-02-07T02:18:38.524Z,11.90
2019-02-07T02:19:38.483Z,12.60
2019-02-07T02:20:38.466Z,12.10
2019-02-07T02:21:38.458Z,11.90
2019-02-07T02:22:38.450Z,13.30
2019-02-07T02:23:38.457Z,12.50
2019-02-07T02:24:38.438Z,13.20
2019-02-07T02:25:38.419Z,12.80
2019-02-07T02:26:38.408Z,12.80
2019-02-07T02:27:38.394Z,12.30
2019-02-07T02:28:38.408Z,12.70
2019-02-07T02:29:38.369Z,12.70
2019-02-07T02:30:38.384Z,12.40
2019-02-07T02:31:38.350Z,12.90
2019-02-07T02:32:38.339Z,12.70
2019-02-07T02:33:38.339Z,12.70
2019-02-07T02:34:38.331Z,13.00
2019-02-07T02:35:38.305Z,12.20
2019-02-07T02:36:38.294Z,13.50
2019-02-07T02:37:38.292Z,13.20
2019-02-07T02:38:38.270Z,12.80
2019-02-07T02:39:38.278Z,12.90
2019-02-07T02:40:38.249Z,12.90
2019-02-07T02:41:38.252Z,12.20
2019-02-07T02:42:38.230Z,12.30
2019-02-07T02:43:38.217Z,12.60
2019-02-07T02:44:38.217Z,13.10
2019-02-07T02:45:38.212Z,13.30
2019-02-07T02:46:38.263Z,13.50
2019-02-07T02:47:38.217Z,12.40
2019-02-07T02:48:38.278Z,13.00
2019-02-07T02:49:38.175Z,13.10
2019-02-07T02:50:38.143Z,13.50
2019-02-07T02:51:38.127Z,13.10
2019-02-07T02:52:40.257Z,13.20
2019-02-07T02:53:38.101Z,13.10
2019-02-07T02:54:38.132Z,12.80
2019-02-07T02:55:38.193Z,13.50
2019-02-07T02:56:38.070Z,13.50
2019-02-07T02:57:38.065Z,13.30
2019-02-07T02:58:38.052Z,13.20
2019-02-07T02:59:38.096Z,14.00
2019-02-07T03:00:38.028Z,13.40
2019-02-07T03:01:38.013Z,13.60
2019-02-07T03:02:38.019Z,13.80
2019-02-07T03:03:37.995Z,13.10
2019-02-07T03:04:38.004Z,13.70
2019-02-07T03:05:38.016Z,14.00
2019-02-07T03:06:37.961Z,13.70
2019-02-07T03:07:37.952Z,13.70
2019-02-07T03:08:37.942Z,13.90
2019-02-07T03:09:37.935Z,13.90
2019-02-07T03:10:37.957Z,14.30
2019-02-07T03:11:37.912Z,14.10
2019-02-07T03:12:37.898Z,13.60
2019-02-07T03:13:37.885Z,15.00
2019-02-07T03:14:37.868Z,13.90
2019-02-07T03:15:48.752Z,14.80
2019-02-07T03:16:38.851Z,13.60
2019-02-07T03:17:37.913Z,14.50
2019-02-07T03:18:37.829Z,13.90
2019-02-07T03:19:37.814Z,14.60
2019-02-07T03:20:37.824Z,14.10
2019-02-07T03:21:37.797Z,14.60
2019-02-07T03:22:37.789Z,14.30
2019-02-07T03:23:37.780Z,14.60
2019-02-07T03:24:37.798Z,14.40
2019-02-07T03:25:37.818Z,13.80
2019-02-07T03:26:37.745Z,13.20
2019-02-07T03:27:37.731Z,14.10
2019-02-07T03:28:37.719Z,13.90
2019-02-07T03:29:37.708Z,13.80
2019-02-07T03:30:37.719Z,14.20
2019-02-07T03:31:37.694Z,13.80
2019-02-07T03:32:37.683Z,14.40
2019-02-07T03:33:37.665Z,13.90
2019-02-07T03:34:37.652Z,14.60
2019-02-07T03:35:37.688Z,14.30
2019-02-07T03:36:37.643Z,14.00
2019-02-07T03:37:37.619Z,14.10
2019-02-07T03:38:37.617Z,14.20
2019-02-07T03:39:37.603Z,15.00
2019-02-07T03:40:37.820Z,13.90
2019-02-07T03:41:37.582Z,15.50
2019-02-07T03:42:37.560Z,13.50
2019-02-07T03:43:37.554Z,15.60
2019-02-07T03:44:37.550Z,14.70
2019-02-07T03:45:37.556Z,15.90
2019-02-07T03:46:37.522Z,15.20
2019-02-07T03:47:37.514Z,15.10
2019-02-07T03:48:37.496Z,15.10
2019-02-07T03:49:37.488Z,14.70
2019-02-07T03:50:37.474Z,15.20
2019-02-07T03:51:37.486Z,14.50
2019-02-07T03:52:37.456Z,15.40
2019-02-07T03:53:37.456Z,14.90
2019-02-07T03:54:37.430Z,14.90
2019-02-07T03:55:37.425Z,14.40
2019-02-07T03:56:37.464Z,14.80
2019-02-07T03:57:37.399Z,15.10
2019-02-07T03:58:37.383Z,15.20
2019-02-07T03:59:37.373Z,14.70
2019-02-07T04:00:37.368Z,14.60
2019-02-07T04:01:37.373Z,14.50
2019-02-07T04:02:40.494Z,14.10
2019-02-07T04:03:37.331Z,14.80
2019-02-07T04:04:37.321Z,14.60
2019-02-07T04:05:37.313Z,14.50
2019-02-07T04:06:37.322Z,15.60
2019-02-07T04:07:37.290Z,15.00
2019-02-07T04:08:37.283Z,15.20
2019-02-07T04:09:37.270Z,15.10
2019-02-07T04:10:37.256Z,14.70
2019-02-07T04:11:37.276Z,14.30
2019-02-07T04:12:37.234Z,14.00
2019-02-07T04:13:37.233Z,14.00
2019-02-07T04:14:37.213Z,14.50
2019-02-07T04:15:37.210Z,14.10
2019-02-07T04:16:37.207Z,13.90
2019-02-07T04:17:37.174Z,13.80
2019-02-07T04:18:37.167Z,13.10
2019-02-07T04:19:37.164Z,14.10
2019-02-07T04:20:37.144Z,14.70
2019-02-07T04:21:37.154Z,14.90
2019-02-07T04:22:37.126Z,14.60
2019-02-07T04:23:37.121Z,14.20
2019-02-07T04:24:37.099Z,13.80
2019-02-07T04:25:37.091Z,14.30
2019-02-07T04:26:37.129Z,13.40
2019-02-07T04:27:37.074Z,14.10
2019-02-07T04:28:37.050Z,13.90
2019-02-07T04:29:37.054Z,13.50
2019-02-07T04:30:37.032Z,14.30
2019-02-07T04:31:37.060Z,13.90
2019-02-07T04:32:37.035Z,15.20
2019-02-07T04:33:37.002Z,15.10
2019-02-07T04:34:37.006Z,14.90
2019-02-07T04:35:36.987Z,13.80
2019-02-07T04:36:36.978Z,14.30
2019-02-07T04:37:36.976Z,14.60
2019-02-07T04:38:36.942Z,14.90
2019-02-07T04:39:36.938Z,14.90
2019-02-07T04:40:36.924Z,15.00
2019-02-07T04:41:36.921Z,14.20
2019-02-07T04:42:36.931Z,14.70
2019-02-07T04:43:36.894Z,14.30
2019-02-07T04:44:36.886Z,13.90
2019-02-07T04:45:36.866Z,14.10
2019-02-07T04:46:36.851Z,14.30
2019-02-07T04:47:36.871Z,14.50
2019-02-07T04:48:36.835Z,13.30
2019-02-07T04:49:36.821Z,15.10
2019-02-07T04:50:36.809Z,14.60
2019-02-07T04:51:36.799Z,14.10
2019-02-07T04:52:36.806Z,14.30
2019-02-07T04:53:36.779Z,14.20
2019-02-07T04:54:36.812Z,13.70
2019-02-07T04:55:36.758Z,14.40
2019-02-07T04:56:36.748Z,13.70
2019-02-07T04:57:36.747Z,14.10
2019-02-07T04:58:36.734Z,14.30
2019-02-07T04:59:36.713Z,14.40
2019-02-07T05:00:36.706Z,14.90
2019-02-07T05:01:36.697Z,14.60
2019-02-07T05:02:36.708Z,14.30
2019-02-07T05:03:36.666Z,14.60
2019-02-07T05:04:36.655Z,14.80
2019-02-07T05:05:36.658Z,14.60
2019-02-07T05:06:36.649Z,13.90
2019-02-07T05:07:36.628Z,14.60
2019-02-07T05:08:36.632Z,14.90
2019-02-07T05:09:36.604Z,14.40
2019-02-07T05:10:36.589Z,14.30
2019-02-07T05:11:36.586Z,14.30
2019-02-07T05:12:36.577Z,14.20
2019-02-07T05:13:36.581Z,14.10
2019-02-07T05:14:36.545Z,14.30
2019-02-07T05:15:36.565Z,14.50
2019-02-07T05:16:39.801Z,14.50
2019-02-07T05:17:37.516Z,14.50
2019-02-07T05:18:36.524Z,14.30
2019-02-07T05:19:36.493Z,14.00
2019-02-07T05:20:36.480Z,14.40
2019-02-07T05:21:36.464Z,13.10
2019-02-07T05:22:36.463Z,13.20
2019-02-07T05:23:36.464Z,13.40
2019-02-07T05:24:36.439Z,14.20
2019-02-07T05:25:36.425Z,14.30
2019-02-07T05:26:36.420Z,13.70
2019-02-07T05:27:36.405Z,13.80
2019-02-07T05:28:36.405Z,14.00
2019-02-07T05:29:36.396Z,14.30
2019-02-07T05:30:36.369Z,13.70
2019-02-07T05:31:36.357Z,13.90
2019-02-07T05:32:36.570Z,13.60
2019-02-07T05:33:36.355Z,14.10
2019-02-07T05:34:36.330Z,13.90
2019-02-07T05:35:36.330Z,13.90
2019-02-07T05:36:36.302Z,14.90
2019-02-07T05:37:36.295Z,14.00
2019-02-07T05:38:36.304Z,13.80
2019-02-07T05:39:36.265Z,14.20
2019-02-07T05:40:36.265Z,14.20
2019-02-07T05:41:36.247Z,13.80
2019-02-07T05:42:36.238Z,14.20
2019-02-07T05:43:36.253Z,15.20
2019-02-07T05:44:36.227Z,15.10
2019-02-07T05:45:36.202Z,14.60
2019-02-07T05:46:36.190Z,15.90
2019-02-07T05:47:36.182Z,15.10
2019-02-07T05:48:36.170Z,15.90
2019-02-07T05:49:36.316Z,14.20
2019-02-07T05:50:36.152Z,15.00
2019-02-07T05:51:36.133Z,14.80
2019-02-07T05:52:36.129Z,15.60
2019-02-07T05:53:36.114Z,14.80
2019-02-07T05:54:36.133Z,14.70
2019-02-07T05:55:36.095Z,14.80
2019-02-07T05:56:36.081Z,14.40
2019-02-07T05:57:36.070Z,15.30
2019-02-07T05:58:36.062Z,14.90
2019-02-07T05:59:36.071Z,14.80
2019-02-07T06:00:36.048Z,14.50
2019-02-07T06:01:36.025Z,15.60
2019-02-07T06:02:36.016Z,15.00
2019-02-07T06:03:36.008Z,15.30
2019-02-07T06:04:36.042Z,15.30
2019-02-07T06:05:35.982Z,16.50
2019-02-07T06:06:35.974Z,15.00
2019-02-07T06:07:35.967Z,16.00
2019-02-07T06:08:35.943Z,15.30
2019-02-07T06:09:35.984Z,16.20
2019-02-07T06:10:35.931Z,15.70
2019-02-07T06:11:35.916Z,16.30
2019-02-07T06:12:35.913Z,15.70
2019-02-07T06:13:35.896Z,15.10
2019-02-07T06:14:35.895Z,16.90
2019-02-07T06:15:35.898Z,16.10
2019-02-07T06:16:35.863Z,15.80
2019-02-07T06:17:35.854Z,16.80
2019-02-07T06:18:35.844Z,16.40
2019-02-07T06:19:36.813Z,17.00
2019-02-07T06:20:35.839Z,17.20
2019-02-07T06:21:35.807Z,16.60
2019-02-07T06:22:35.893Z,17.00
2019-02-07T06:23:35.789Z,16.70
2019-02-07T06:24:35.774Z,16.30
2019-02-07T06:25:35.789Z,15.90
2019-02-07T06:26:35.751Z,17.50
2019-02-07T06:27:35.753Z,16.80
2019-02-07T06:28:35.730Z,17.20
2019-02-07T06:29:35.729Z,15.90
2019-02-07T06:30:35.735Z,16.20
2019-02-07T06:31:35.712Z,16.10
2019-02-07T06:32:36.765Z,16.90
2019-02-07T06:33:35.683Z,16.90
2019-02-07T06:34:35.706Z,17.10
2019-02-07T06:35:35.689Z,17.30
2019-02-07T06:36:35.660Z,16.70
2019-02-07T06:37:35.632Z,17.30
2019-02-07T06:38:35.624Z,16.70
2019-02-07T06:39:35.627Z,16.70
2019-02-07T06:40:35.599Z,17.10
2019-02-07T06:41:35.606Z,16.70
2019-02-07T06:42:35.573Z,17.60
2019-02-07T06:43:35.567Z,17.40
2019-02-07T06:44:35.557Z,17.20
2019-02-07T06:45:35.551Z,16.70
2019-02-07T06:46:35.565Z,16.80
2019-02-07T06:47:35.523Z,16.70
2019-02-07T06:48:35.518Z,16.70
2019-02-07T06:49:35.498Z,16.80
2019-02-07T06:50:35.486Z,17.30
2019-02-07T06:51:35.502Z,17.20
2019-02-07T06:52:35.471Z,17.60
2019-02-07T06:53:35.461Z,17.60
2019-02-07T06:54:35.452Z,16.90
2019-02-07T06:55:35.431Z,17.90
2019-02-07T06:56:35.469Z,16.50
2019-02-07T06:57:35.411Z,18.90
2019-02-07T06:58:35.407Z,17.60
2019-02-07T06:59:35.391Z,16.90
2019-02-07T07:00:35.408Z,17.50
2019-02-07T07:01:35.368Z,18.00
2019-02-07T07:02:35.378Z,16.20
2019-02-07T07:03:35.359Z,17.00
2019-02-07T07:04:35.329Z,17.80
2019-02-07T07:05:35.329Z,17.70
2019-02-07T07:06:35.311Z,16.60
2019-02-07T07:07:35.321Z,17.10
2019-02-07T07:08:35.304Z,16.90
2019-02-07T07:09:35.282Z,17.30
2019-02-07T07:10:35.278Z,17.70
2019-02-07T07:11:35.266Z,17.20
2019-02-07T07:12:35.270Z,17.40
2019-02-07T07:13:35.243Z,17.50
2019-02-07T07:14:35.220Z,18.00
2019-02-07T07:15:35.220Z,18.00
2019-02-07T07:16:35.201Z,17.20
2019-02-07T07:17:35.325Z,17.00
2019-02-07T07:18:35.177Z,17.10
2019-02-07T07:19:35.165Z,17.30
2019-02-07T07:20:35.156Z,18.80
2019-02-07T07:21:35.154Z,19.20
2019-02-07T07:22:35.164Z,18.00
2019-02-07T07:23:35.119Z,17.20
2019-02-07T07:24:35.118Z,17.80
2019-02-07T07:25:35.107Z,17.10
2019-02-07T07:26:35.090Z,17.60
2019-02-07T07:27:35.091Z,17.10
2019-02-07T07:28:35.089Z,17.40
2019-02-07T07:29:35.053Z,16.80
2019-02-07T07:30:35.050Z,18.00
2019-02-07T07:31:35.031Z,17.30
2019-02-07T07:32:35.021Z,17.60
2019-02-07T07:33:35.025Z,17.10
2019-02-07T07:34:34.997Z,18.10
2019-02-07T07:35:34.990Z,18.30
2019-02-07T07:36:35.003Z,16.90
2019-02-07T07:37:34.985Z,17.20
2019-02-07T07:38:34.983Z,16.60
2019-02-07T07:39:34.949Z,17.80
2019-02-07T07:40:34.931Z,17.70
2019-02-07T07:41:34.924Z,17.50
2019-02-07T07:42:34.915Z,17.30
2019-02-07T07:43:34.925Z,18.00
2019-02-07T07:44:34.897Z,17.50
2019-02-07T07:45:34.877Z,18.10
2019-02-07T07:46:34.865Z,17.60
2019-02-07T07:47:36.226Z,17.60
2019-02-07T07:48:34.874Z,18.20
2019-02-07T07:49:34.841Z,18.30
2019-02-07T07:50:34.827Z,18.40
2019-02-07T07:51:34.815Z,18.80
2019-02-07T07:52:34.800Z,18.40
2019-02-07T07:53:34.846Z,18.90
2019-02-07T07:54:34.795Z,18.30
2019-02-07T07:55:34.773Z,18.90
2019-02-07T07:56:34.769Z,18.70
2019-02-07T07:57:34.748Z,18.90
2019-02-07T07:58:34.881Z,19.40
2019-02-07T07:59:34.731Z,18.60
2019-02-07T08:00:34.732Z,18.90
2019-02-07T08:01:34.715Z,18.10
2019-02-07T08:02:34.688Z,18.80
2019-02-07T08:03:34.682Z,18.60
2019-02-07T08:04:34.688Z,18.30
2019-02-07T08:05:34.671Z,18.40
2019-02-07T08:06:34.648Z,18.00
2019-02-07T08:07:34.631Z,18.10
2019-02-07T08:08:34.632Z,19.20
2019-02-07T08:09:34.631Z,17.70
2019-02-07T08:10:34.603Z,18.50
2019-02-07T08:11:34.595Z,18.80
2019-02-07T08:12:34.587Z,17.90
2019-02-07T08:13:34.576Z,18.10
2019-02-07T08:14:34.587Z,17.70
2019-02-07T08:15:34.545Z,17.10
2019-02-07T08:16:34.538Z,18.00
2019-02-07T08:17:34.526Z,18.30
2019-02-07T08:18:34.524Z,18.20
2019-02-07T08:19:34.525Z,18.50
2019-02-07T08:20:34.493Z,18.00
2019-02-07T08:21:34.485Z,19.10
2019-02-07T08:22:34.475Z,19.50
2019-02-07T08:23:34.460Z,20.00
2019-02-07T08:24:34.489Z,19.80
2019-02-07T08:25:34.436Z,19.80
2019-02-07T08:26:34.421Z,20.30
2019-02-07T08:27:34.414Z,20.00
2019-02-07T08:28:34.412Z,20.10
2019-02-07T08:29:34.418Z,19.90
2019-02-07T08:30:36.408Z,18.80
2019-02-07T08:31:34.373Z,20.10
2019-02-07T08:32:34.357Z,19.60
2019-02-07T08:33:34.347Z,19.80
2019-02-07T08:34:34.341Z,18.80
2019-02-07T08:35:34.343Z,18.80
2019-02-07T08:36:34.330Z,18.50
2019-02-07T08:37:34.298Z,19.80
2019-02-07T08:38:34.298Z,19.30
2019-02-07T08:39:34.281Z,18.40
2019-02-07T08:40:34.283Z,18.70
2019-02-07T08:41:34.255Z,17.50
2019-02-07T08:42:34.267Z,17.60
2019-02-07T08:43:34.239Z,18.10
2019-02-07T08:44:34.236Z,17.60
2019-02-07T08:45:34.244Z,18.80
2019-02-07T08:46:34.235Z,17.60
2019-02-07T08:47:34.236Z,16.70
2019-02-07T08:48:34.185Z,17.80
2019-02-07T08:49:34.174Z,17.00
2019-02-07T08:50:34.182Z,16.90
2019-02-07T08:51:34.160Z,17.60
2019-02-07T08:52:34.186Z,18.00
2019-02-07T08:53:34.176Z,16.90
2019-02-07T08:54:34.110Z,18.00
2019-02-07T08:55:35.063Z,16.80
2019-02-07T08:56:34.107Z,17.60
2019-02-07T08:57:34.081Z,17.20
2019-02-07T08:58:34.090Z,17.30
2019-02-07T08:59:34.053Z,16.50
2019-02-07T09:00:34.063Z,16.40
2019-02-07T09:01:34.058Z,16.80
2019-02-07T09:02:34.023Z,16.70
2019-02-07T09:03:34.026Z,17.10
2019-02-07T09:04:34.029Z,18.20
2019-02-07T09:05:33.989Z,16.80
2019-02-07T09:06:33.997Z,17.00
2019-02-07T09:07:33.980Z,17.00
2019-02-07T09:08:33.966Z,17.20
2019-02-07T09:09:33.952Z,16.80
2019-02-07T09:10:33.937Z,17.00
2019-02-07T09:11:33.950Z,17.10
2019-02-07T09:12:33.909Z,17.60
2019-02-07T09:13:33.904Z,17.10
2019-02-07T09:14:33.895Z,16.60
2019-02-07T09:15:33.892Z,16.60
2019-02-07T09:16:33.903Z,16.30
2019-02-07T09:17:33.855Z,16.70
2019-02-07T09:18:33.852Z,16.60
2019-02-07T09:19:33.833Z,16.80
2019-02-07T09:20:33.834Z,17.00
2019-02-07T09:21:33.857Z,16.00
2019-02-07T09:22:33.802Z,16.90
2019-02-07T09:23:33.791Z,16.10
2019-02-07T09:24:33.781Z,16.80
2019-02-07T09:25:34.509Z,16.60
2019-02-07T09:26:33.808Z,15.80
2019-02-07T09:27:33.755Z,16.70
2019-02-07T09:28:33.735Z,16.20
2019-02-07T09:29:33.728Z,16.30
2019-02-07T09:30:33.722Z,16.30
2019-02-07T09:31:33.705Z,15.90
2019-02-07T09:32:33.717Z,16.80
2019-02-07T09:33:33.690Z,16.30
2019-02-07T09:34:33.669Z,16.10
2019-02-07T09:35:33.655Z,16.50
2019-02-07T09:36:33.651Z,16.40
2019-02-07T09:37:33.659Z,15.90
2019-02-07T09:38:33.633Z,15.90
2019-02-07T09:39:33.614Z,15.80
2019-02-07T09:40:33.602Z,16.50
2019-02-07T09:41:33.590Z,16.10
2019-02-07T09:42:33.603Z,16.20
2019-02-07T09:43:33.577Z,16.10
2019-02-07T09:44:33.558Z,15.20
2019-02-07T09:45:33.549Z,15.90
2019-02-07T09:46:33.534Z,15.80
2019-02-07T09:47:33.554Z,15.70
2019-02-07T09:48:33.515Z,15.40
2019-02-07T09:49:33.505Z,15.60
2019-02-07T09:50:33.495Z,15.40
2019-02-07T09:51:33.500Z,15.40
2019-02-07T09:52:33.471Z,15.30
2019-02-07T09:53:33.483Z,15.70
2019-02-07T09:54:33.451Z,15.30
2019-02-07T09:55:33.448Z,15.80
2019-02-07T09:56:33.438Z,15.60
2019-02-07T09:57:33.411Z,15.10
2019-02-07T09:58:33.428Z,15.20
2019-02-07T09:59:33.391Z,15.10
2019-02-07T10:00:33.378Z,14.70
2019-02-07T10:01:33.378Z,15.80
2019-02-07T10:02:33.472Z,15.90
2019-02-07T10:03:33.369Z,15.30
2019-02-07T10:04:33.345Z,15.30
2019-02-07T10:05:33.322Z,15.40
2019-02-07T10:06:33.327Z,15.00
2019-02-07T10:07:33.336Z,15.40
2019-02-07T10:08:33.329Z,15.80
2019-02-07T10:09:33.280Z,15.40
2019-02-07T10:10:33.275Z,15.10
2019-02-07T10:11:33.268Z,14.20
2019-02-07T10:12:33.264Z,14.50
2019-02-07T10:13:33.294Z,15.30
2019-02-07T10:14:33.259Z,15.40
2019-02-07T10:15:33.211Z,14.90
2019-02-07T10:16:33.209Z,15.00
2019-02-07T10:17:33.187Z,15.20
2019-02-07T10:18:33.413Z,15.30
2019-02-07T10:19:33.204Z,15.70
2019-02-07T10:20:33.159Z,14.70
2019-02-07T10:21:33.149Z,15.30
2019-02-07T10:22:33.151Z,14.60
2019-02-07T10:23:33.126Z,15.90
2019-02-07T10:24:33.135Z,14.10
2019-02-07T10:25:33.104Z,15.50
2019-02-07T10:26:33.097Z,15.70
2019-02-07T10:27:33.081Z,14.70
2019-02-07T10:28:33.071Z,14.30
2019-02-07T10:29:33.081Z,14.30
2019-02-07T10:30:33.065Z,14.40
2019-02-07T10:31:33.033Z,13.80
2019-02-07T10:32:33.022Z,13.90
2019-02-07T10:33:33.014Z,14.40
2019-02-07T10:34:33.028Z,14.80
2019-02-07T10:35:32.988Z,14.80
2019-02-07T10:36:32.981Z,14.30
2019-02-07T10:37:32.970Z,14.70
2019-02-07T10:38:32.955Z,14.60
2019-02-07T10:39:32.962Z,14.70
2019-02-07T10:40:32.946Z,14.80
2019-02-07T10:41:32.933Z,14.70
2019-02-07T10:42:32.905Z,14.90
2019-02-07T10:43:32.901Z,14.70
2019-02-07T10:44:32.889Z,14.00
2019-02-07T10:45:32.894Z,14.90
2019-02-07T10:46:32.870Z,13.80
2019-02-07T10:47:32.864Z,14.80
2019-02-07T10:48:43.968Z,15.00
2019-02-07T10:49:33.862Z,15.00
2019-02-07T10:50:32.844Z,13.50
2019-02-07T10:51:32.821Z,13.70
2019-02-07T10:52:32.806Z,14.80
2019-02-07T10:53:32.788Z,14.90
2019-02-07T10:54:32.776Z,14.80
2019-02-07T10:55:32.782Z,13.70
2019-02-07T10:56:32.765Z,14.20
2019-02-07T10:57:32.772Z,14.10
2019-02-07T10:58:32.733Z,14.00
2019-02-07T10:59:32.716Z,14.20
2019-02-07T11:00:32.749Z,14.60
2019-02-07T11:01:32.698Z,14.30
2019-02-07T11:02:32.684Z,15.50
2019-02-07T11:03:32.675Z,15.00
2019-02-07T11:04:32.662Z,15.30
2019-02-07T11:05:32.648Z,14.30
2019-02-07T11:06:32.658Z,14.00
2019-02-07T11:07:32.628Z,14.00
2019-02-07T11:08:32.618Z,13.90
2019-02-07T11:09:32.604Z,13.90
2019-02-07T11:10:32.599Z,13.60
2019-02-07T11:11:32.611Z,14.20
2019-02-07T11:12:32.583Z,13.80
2019-02-07T11:13:32.573Z,13.70
2019-02-07T11:14:32.643Z,14.80
2019-02-07T11:15:32.550Z,13.90
2019-02-07T11:16:32.547Z,13.80
2019-02-07T11:17:32.519Z,12.80
2019-02-07T11:18:32.508Z,12.90
2019-02-07T11:19:32.511Z,12.70
2019-02-07T11:20:32.486Z,13.20
2019-02-07T11:21:32.490Z,13.20
2019-02-07T11:22:32.464Z,13.70
2019-02-07T11:23:32.449Z,13.20
2019-02-07T11:24:32.447Z,12.50
2019-02-07T11:25:32.432Z,13.00
2019-02-07T11:26:32.458Z,13.50
2019-02-07T11:27:32.405Z,12.50
2019-02-07T11:28:32.395Z,13.20
2019-02-07T11:29:32.388Z,12.90
2019-02-07T11:30:32.373Z,13.60
2019-02-07T11:31:32.401Z,13.20
2019-02-07T11:32:32.350Z,12.70
2019-02-07T11:33:32.341Z,13.90
2019-02-07T11:34:32.329Z,13.30
2019-02-07T11:35:32.318Z,13.10
2019-02-07T11:36:32.306Z,12.70
2019-02-07T11:37:32.325Z,13.50
2019-02-07T11:38:32.283Z,12.80
2019-02-07T11:39:32.268Z,13.00
2019-02-07T11:40:32.259Z,12.50
2019-02-07T11:41:32.245Z,12.90
2019-02-07T11:42:32.251Z,13.40
2019-02-07T11:43:32.248Z,13.30
2019-02-07T11:44:32.262Z,13.60
2019-02-07T11:45:32.199Z,13.00
2019-02-07T11:46:37.341Z,13.70
2019-02-07T11:47:33.196Z,12.90
2019-02-07T11:48:32.171Z,13.40
2019-02-07T11:49:32.159Z,12.80
2019-02-07T11:50:32.152Z,13.00
2019-02-07T11:51:32.140Z,13.40
2019-02-07T11:52:32.141Z,12.60
2019-02-07T11:53:32.148Z,13.50
2019-02-07T11:54:32.097Z,13.60
2019-02-07T11:55:32.107Z,13.00
2019-02-07T11:56:32.077Z,13.10
2019-02-07T11:57:32.139Z,12.70
2019-02-07T11:58:32.073Z,13.40
2019-02-07T11:59:32.045Z,13.30
2019-02-07T12:00:32.031Z,12.70
2019-02-07T12:01:32.034Z,12.90
2019-02-07T12:02:32.006Z,13.20
2019-02-07T12:03:32.020Z,13.00
2019-02-07T12:04:31.981Z,13.00
2019-02-07T12:05:31.995Z,12.50
2019-02-07T12:06:31.962Z,13.20
2019-02-07T12:07:31.978Z,13.10
2019-02-07T12:08:31.962Z,12.80
2019-02-07T12:09:31.925Z,12.60
2019-02-07T12:10:31.919Z,12.40
2019-02-07T12:11:31.908Z,13.10
2019-02-07T12:12:31.904Z,13.20
2019-02-07T12:13:31.904Z,12.70
2019-02-07T12:14:31.869Z,12.90
2019-02-07T12:15:31.859Z,13.10
2019-02-07T12:16:31.891Z,12.90
2019-02-07T12:17:31.849Z,12.90
2019-02-07T12:18:31.843Z,12.90
2019-02-07T12:19:31.867Z,13.20
2019-02-07T12:20:31.916Z,12.90
2019-02-07T12:21:31.796Z,13.50
2019-02-07T12:22:31.780Z,12.70
2019-02-07T12:23:31.785Z,12.80
2019-02-07T12:24:31.765Z,12.80
2019-02-07T12:25:31.770Z,12.90
2019-02-07T12:26:31.737Z,12.90
2019-02-07T12:27:31.724Z,12.20
2019-02-07T12:28:31.735Z,13.30
2019-02-07T12:29:31.708Z,12.70
2019-02-07T12:30:31.698Z,12.00
2019-02-07T12:31:31.759Z,12.40
2019-02-07T12:32:31.675Z,13.20
2019-02-07T12:33:32.421Z,12.60
2019-02-07T12:34:31.648Z,13.40
2019-02-07T12:35:31.643Z,12.70
2019-02-07T12:36:31.622Z,13.10
2019-02-07T12:37:31.624Z,12.40
2019-02-07T12:38:31.602Z,13.40
2019-02-07T12:39:31.608Z,12.40
2019-02-07T12:40:31.581Z,13.10
2019-02-07T12:41:31.570Z,11.90
2019-02-07T12:42:31.562Z,13.40
2019-02-07T12:43:31.595Z,13.40
2019-02-07T12:44:31.560Z,13.00
2019-02-07T12:45:31.527Z,12.50
2019-02-07T12:46:31.512Z,12.20
2019-02-07T12:47:31.511Z,12.60
2019-02-07T12:48:31.490Z,12.20
2019-02-07T12:49:33.515Z,11.90
2019-02-07T12:50:31.464Z,12.70
2019-02-07T12:51:31.462Z,12.50
2019-02-07T12:52:31.448Z,12.00